Share

Pebble Island, Falkland Islands

Mount Pleasant (EGYP) Elev 243 ft | 51.82 °S, 58.45 °W | Change Station

Current weather conditions updated 19 minutes ago

Light Rain Showers
Light Showers Rain Snow
36 °F
Feels Like 23 °F
N
26
Wind Variable Wind from SW
Sunrise 7:49 AM
Sunset 6:04 PM
Moon Waning Gibbous

Today is forecast to be Cooler than yesterday. .

Pressure 29.53 in
Visibility 5.0 miles
Clouds Few 1000 ft
Few 1500 ft
Scattered Clouds 4500 ft
Windchill 23 °F
Dew Point 32 °F
Humidity 87%
Rainfall 0.00 in
Snow Depth Not available.
UV 1 out of 16
Pollen Not available.
Air Quality Not available.
Flu Activity Not available.
METAR EGYP 191750Z 22023KT 8000 -SHRASN FEW010 FEW015CB SCT045 02/00 Q1000 BLU TEMPO 1500 SHSN BKN006 BKN015CB AMB

More Conditions Fewer Conditions

Pressure 29.53 in
Visibility 5.0 miles
Clouds Few 1000 ft
Few 1500 ft
Scattered Clouds 4500 ft
Windchill 23 °F
Dew Point 32 °F
Humidity 87%
Rainfall 0.00 in
Snow Depth Not available.
UV 1 out of 16
Pollen Not available.
Air Quality Not available.
Flu Activity Not available.
METAR EGYP 191750Z 22023KT 8000 -SHRASN FEW010 FEW015CB SCT045 02/00 Q1000 BLU TEMPO 1500 SHSN BKN006 BKN015CB AMB

More Conditions Fewer Conditions

10-Day Weather Forecast

Almanac

Astronomy

Apr. 19, 2014 Rise Set
Actual Time 7:49 AM FKST 6:04 PM FKST
Civil Twilight 7:15 AM FKST 6:38 PM FKST
Nautical Twilight 6:36 AM FKST 7:17 PM FKST
Astronomical Twilight 5:58 AM FKST 7:55 PM FKST
Moon 9:24 PM FKST 12:23 PM FKST
Length of Visible Light 11h 23m
Length of Day
10h 15m
Tomorrow will be 3m 39s shorter.
Waning Gibbous, 78% of the Moon is Illuminated
Today
Waning Gibbous
Apr 22
Last Quarter
Apr 29
New
May 6
First Quarter
May 14
Full

Today's Extremes

Country Highs Country Lows

Community

  • Piriapolis
    Piriapolis
  • A Glorious Morning
    A Glorious Morning
  • Tender Rays Of Hope
    Tender Rays Of Hope
  • Bleeding Hearts
    Bleeding Hearts
  • Sunset Silhouettes
    Sunset Silhouettes

WunderPhotos

Upload Photos

1,702,816 photos uploaded!

WunderBlogs® & News

Nearby

Snow Depth

Not available.

Coastal Water Temperatures

Place Temperature
No Stations Reporting

Earthquake Activity

City Distance Mag. Time & Date
No recent earthquake activity has been reported nearby.
Minimum magnitude displayed is 2.5.

Nearby Weather Stations

There are no personal weather stations in this area.

What do you think?

We're not finished. Please let us know what you like, what you don't like, and what you are still missing.